Time;durP1;ratioP1;P1;durP2;ratioP2;P2;SDS_P1;SDS_P2;PMS_P1;PMS_P2;Temp;Humidity;BMP_temperature;BMP_pressure;BME280_temperature;BME280_humidity;BME280_pressure;Samples;Min_cycle;Max_cycle;Signal;HPM_P1;HPM_P2
2023/01/16 00:01:17;;;;;;;12.98;2.47;;;4.60;99.90;;;;;;4912109;29;20073;-70
2023/01/16 00:03:44;;;;;;;16.20;3.40;;;4.60;99.90;;;;;;4912435;29;20570;-68
2023/01/16 00:06:11;;;;;;;14.68;3.33;;;4.60;99.90;;;;;;4911640;29;20056;-68
2023/01/16 00:08:38;;;;;;;16.58;3.28;;;4.70;99.90;;;;;;4911891;29;20128;-68
2023/01/16 00:11:04;;;;;;;13.95;2.42;;;4.70;99.90;;;;;;4912058;29;20052;-68
2023/01/16 00:13:31;;;;;;;11.45;3.08;;;4.70;99.90;;;;;;4920232;29;20907;-69
2023/01/16 00:15:58;;;;;;;18.90;3.08;;;4.70;99.90;;;;;;4931195;29;20056;-68
2023/01/16 00:18:26;;;;;;;17.85;2.58;;;4.70;99.90;;;;;;4931284;29;20118;-68
2023/01/16 00:20:53;;;;;;;22.58;6.53;;;4.70;99.90;;;;;;4931835;29;20048;-69
2023/01/16 00:23:19;;;;;;;15.10;2.83;;;4.60;99.90;;;;;;4932064;29;20048;-69
2023/01/16 00:25:46;;;;;;;12.38;2.25;;;4.60;99.90;;;;;;4935277;29;20056;-69
2023/01/16 00:28:13;;;;;;;17.65;2.35;;;4.60;99.90;;;;;;4936714;29;20047;-69
2023/01/16 00:30:40;;;;;;;11.73;3.90;;;4.60;99.90;;;;;;4936044;29;20051;-68
2023/01/16 00:33:07;;;;;;;17.88;3.38;;;4.60;99.90;;;;;;4934035;29;20142;-69
2023/01/16 00:35:34;;;;;;;17.30;3.00;;;4.60;99.90;;;;;;4932919;29;20051;-68
2023/01/16 00:38:01;;;;;;;14.65;3.58;;;4.70;99.90;;;;;;4930676;29;20048;-67
2023/01/16 00:40:27;;;;;;;16.48;3.20;;;4.70;99.90;;;;;;4930968;29;20047;-68
2023/01/16 00:42:54;;;;;;;14.77;3.60;;;4.70;99.90;;;;;;4930198;29;20040;-68
2023/01/16 00:45:21;;;;;;;11.13;2.40;;;4.80;99.90;;;;;;4930605;29;20146;-68
2023/01/16 00:47:48;;;;;;;19.98;2.90;;;4.80;99.90;;;;;;4929361;29;20518;-68
2023/01/16 00:50:15;;;;;;;18.55;3.42;;;4.80;99.90;;;;;;4930527;29;20060;-70
2023/01/16 00:52:42;;;;;;;12.38;3.28;;;4.90;99.90;;;;;;4913149;29;20418;-68
2023/01/16 00:55:09;;;;;;;21.67;2.95;;;4.80;99.90;;;;;;4920361;29;20143;-70
2023/01/16 00:57:35;;;;;;;13.18;3.15;;;4.90;99.90;;;;;;4910321;29;20598;-69
2023/01/16 01:00:03;;;;;;;13.70;2.88;;;4.90;99.90;;;;;;4928086;29;20087;-69
2023/01/16 01:02:30;;;;;;;10.50;2.42;;;4.90;99.90;;;;;;4928842;29;20146;-69
2023/01/16 01:04:57;;;;;;;9.23;2.58;;;4.90;99.90;;;;;;4911308;29;20095;-69
2023/01/16 01:07:23;;;;;;;13.85;2.30;;;4.90;99.90;;;;;;4928803;29;20105;-67
2023/01/16 01:09:50;;;;;;;12.00;2.85;;;4.90;99.90;;;;;;4928233;29;20275;-67
2023/01/16 01:12:17;;;;;;;18.98;2.80;;;4.90;99.90;;;;;;4930484;29;20102;-68
2023/01/16 01:14:44;;;;;;;19.98;3.53;;;4.90;99.90;;;;;;4929881;29;20070;-68
2023/01/16 01:17:10;;;;;;;11.20;2.70;;;4.90;99.90;;;;;;4930330;29;20573;-67
2023/01/16 01:19:37;;;;;;;15.45;2.58;;;4.90;99.90;;;;;;4929850;29;20044;-67
2023/01/16 01:22:04;;;;;;;18.20;2.83;;;4.90;99.90;;;;;;4930198;29;20135;-67
2023/01/16 01:24:31;;;;;;;8.80;2.95;;;4.90;99.90;;;;;;4929972;29;20078;-69
2023/01/16 01:26:57;;;;;;;11.98;2.75;;;4.90;99.90;;;;;;4927798;29;20491;-69
2023/01/16 01:29:24;;;;;;;8.02;3.95;;;5.20;99.90;;;;;;4929772;29;20052;-67
2023/01/16 01:31:51;;;;;;;24.35;3.28;;;4.90;99.90;;;;;;4929786;29;20060;-68
2023/01/16 01:34:17;;;;;;;13.75;2.17;;;4.90;99.90;;;;;;4929935;29;20055;-69
2023/01/16 01:36:44;;;;;;;15.88;2.20;;;4.90;99.90;;;;;;4929442;29;20051;-68
2023/01/16 01:39:11;;;;;;;11.30;2.47;;;4.90;99.90;;;;;;4930015;29;20048;-68
2023/01/16 01:41:38;;;;;;;13.80;2.88;;;4.80;99.90;;;;;;4909959;29;20048;-69
2023/01/16 01:44:42;;;;;;;14.98;3.17;;;4.90;99.90;;;;;;4911230;29;20044;-68
2023/01/16 01:47:09;;;;;;;18.25;4.20;;;4.80;99.90;;;;;;4928802;29;20054;-68
2023/01/16 01:49:36;;;;;;;7.65;2.25;;;4.80;99.90;;;;;;4896257;29;20162;-68
2023/01/16 01:52:03;;;;;;;30.20;5.15;;;4.80;99.90;;;;;;4573196;28;10000455;-69
2023/01/16 01:54:36;;;;;;;16.83;2.78;;;4.70;99.90;;;;;;4912801;29;20083;-69
2023/01/16 01:57:06;;;;;;;20.55;2.65;;;4.70;99.90;;;;;;4916581;29;20048;-69
2023/01/16 01:59:39;;;;;;;16.63;5.25;;;4.70;99.90;;;;;;4917092;29;20058;-69
2023/01/16 02:02:06;;;;;;;16.30;2.42;;;4.70;99.90;;;;;;4914994;29;20147;-69
2023/01/16 02:04:35;;;;;;;8.65;2.17;;;4.60;99.90;;;;;;4915753;29;20470;-69
2023/01/16 02:07:04;;;;;;;12.73;2.97;;;4.70;99.90;;;;;;4915621;29;20044;-69
2023/01/16 02:09:31;;;;;;;11.00;2.85;;;4.60;99.90;;;;;;4916156;29;20090;-69
2023/01/16 02:12:01;;;;;;;12.10;2.67;;;4.60;99.90;;;;;;4913544;29;20056;-68
2023/01/16 02:14:30;;;;;;;12.52;1.70;;;4.60;99.90;;;;;;4916131;29;20047;-69
2023/01/16 02:20:02;;;;;;;11.82;2.35;;;4.70;99.90;;;;;;4939685;29;20048;-70
2023/01/16 02:22:28;;;;;;;11.50;1.92;;;4.70;99.90;;;;;;4932736;29;20139;-69
2023/01/16 02:24:58;;;;;;;13.10;2.42;;;4.70;99.90;;;;;;4933136;29;20492;-68
2023/01/16 02:27:48;;;;;;;12.70;3.17;;;4.70;99.90;;;;;;4915891;29;20130;-70
2023/01/16 02:30:50;;;;;;;8.43;1.75;;;4.70;99.90;;;;;;4912816;29;20086;-69
2023/01/16 02:33:31;;;;;;;6.45;1.60;;;4.70;99.90;;;;;;4917560;29;20043;-69
2023/01/16 02:36:12;;;;;;;5.80;1.35;;;4.70;99.90;;;;;;4916395;29;20063;-69
2023/01/16 02:38:55;;;;;;;7.85;1.20;;;4.70;99.90;;;;;;4936532;29;20174;-68
2023/01/16 02:41:22;;;;;;;6.47;1.98;;;4.70;99.90;;;;;;4915833;29;20518;-68
2023/01/16 02:43:54;;;;;;;10.68;1.80;;;4.60;99.90;;;;;;4922061;29;20495;-68
2023/01/16 02:46:25;;;;;;;6.88;1.55;;;4.70;99.90;;;;;;4932757;29;20508;-68
2023/01/16 02:49:18;;;;;;;6.13;1.13;;;4.70;99.90;;;;;;4910164;29;20054;-68
2023/01/16 02:51:49;;;;;;;5.15;2.00;;;4.70;99.90;;;;;;4915612;29;20052;-68
2023/01/16 02:54:38;;;;;;;7.95;1.85;;;4.60;99.90;;;;;;4915684;29;20052;-68
2023/01/16 02:57:09;;;;;;;1.73;0.80;;;4.60;99.90;;;;;;4900426;29;20058;-68
2023/01/16 02:59:36;;;;;;;6.95;0.88;;;4.60;99.90;;;;;;4932559;29;20491;-68
2023/01/16 03:02:03;;;;;;;0.30;0.30;;;4.50;99.90;;;;;;4915192;29;20055;-68
2023/01/16 03:04:36;;;;;;;0.55;0.35;;;4.50;99.90;;;;;;4932576;29;20043;-68
2023/01/16 03:07:18;;;;;;;5.82;0.52;;;4.40;99.90;;;;;;4932047;29;20464;-71
2023/01/16 03:10:19;;;;;;;0.52;0.40;;;4.40;99.90;;;;;;4929542;29;20427;-69
2023/01/16 03:13:08;;;;;;;1.00;0.40;;;4.30;99.90;;;;;;4931759;29;20048;-70
2023/01/16 03:15:35;;;;;;;1.25;0.22;;;4.30;99.90;;;;;;4924172;29;20050;-70
2023/01/16 03:18:23;;;;;;;0.20;0.20;;;4.10;99.90;;;;;;4931518;29;20498;-69
2023/01/16 03:20:54;;;;;;;0.70;0.38;;;4.10;99.90;;;;;;4899989;29;20139;-69
2023/01/16 03:24:04;;;;;;;0.57;0.57;;;4.00;99.90;;;;;;4915299;29;20103;-69
2023/01/16 03:26:39;;;;;;;1.58;0.30;;;4.00;99.90;;;;;;4840194;29;20050;-70
2023/01/16 03:29:10;;;;;;;0.93;0.20;;;3.90;99.90;;;;;;4903325;29;20043;-70
2023/01/16 03:32:06;;;;;;;0.43;0.20;;;3.90;99.90;;;;;;4920343;29;20130;-70
2023/01/16 03:34:54;;;;;;;1.10;0.38;;;3.90;99.90;;;;;;4933531;29;20423;-69
2023/01/16 03:37:28;;;;;;;0.43;0.43;;;3.90;99.90;;;;;;4912872;29;20568;-69
2023/01/16 03:39:58;;;;;;;0.88;0.50;;;3.80;99.90;;;;;;4915213;29;20056;-69
2023/01/16 03:42:41;;;;;;;0.28;0.28;;;3.80;99.90;;;;;;4901762;29;20047;-68
2023/01/16 03:45:16;;;;;;;0.45;0.20;;;3.70;99.90;;;;;;4931449;29;20095;-69
2023/01/16 03:47:47;;;;;;;5.25;0.52;;;3.60;99.90;;;;;;4888724;29;20053;-69
2023/01/16 03:50:14;;;;;;;2.42;0.38;;;3.60;99.90;;;;;;4896890;29;20480;-70
2023/01/16 03:52:44;;;;;;;0.45;0.22;;;3.50;99.90;;;;;;4932148;29;20059;-70
2023/01/16 03:55:19;;;;;;;0.30;0.30;;;3.50;99.90;;;;;;4897362;29;20051;-70
2023/01/16 03:57:54;;;;;;;0.93;0.57;;;3.40;99.90;;;;;;4943663;29;20134;-69
2023/01/16 04:00:21;;;;;;;2.38;0.20;;;3.40;99.90;;;;;;4916365;29;20138;-69
2023/01/16 04:03:01;;;;;;;0.30;0.30;;;3.40;99.90;;;;;;4931278;29;20048;-68
2023/01/16 04:05:36;;;;;;;2.92;0.30;;;3.20;99.90;;;;;;4929690;29;20098;-68
2023/01/16 04:08:09;;;;;;;0.20;0.20;;;3.20;99.90;;;;;;4897350;29;20059;-68
2023/01/16 04:10:37;;;;;;;0.20;0.20;;;3.20;99.90;;;;;;4915079;29;20134;-68
2023/01/16 04:13:06;;;;;;;0.63;0.40;;;3.10;99.90;;;;;;4914268;29;20328;-69
2023/01/16 04:15:34;;;;;;;0.52;0.32;;;3.10;99.90;;;;;;4898673;29;20075;-69
2023/01/16 04:18:01;;;;;;;0.57;0.45;;;3.10;99.90;;;;;;4913432;29;20074;-69
2023/01/16 04:20:30;;;;;;;2.47;0.35;;;3.00;99.90;;;;;;4931055;29;20102;-69
2023/01/16 04:22:57;;;;;;;0.30;0.30;;;3.00;99.90;;;;;;4898672;29;20047;-68
2023/01/16 04:25:24;;;;;;;0.50;0.38;;;3.00;99.90;;;;;;4930980;29;20050;-69
2023/01/16 04:27:50;;;;;;;0.20;0.20;;;2.90;99.90;;;;;;4913946;29;20057;-69
2023/01/16 04:30:17;;;;;;;0.32;0.30;;;2.90;99.90;;;;;;4931001;29;20699;-69
2023/01/16 04:32:44;;;;;;;1.05;0.43;;;2.90;99.90;;;;;;4930709;29;20047;-68
2023/01/16 04:35:11;;;;;;;0.30;0.30;;;2.90;99.90;;;;;;4930831;29;20050;-71
2023/01/16 04:37:38;;;;;;;15.13;1.20;;;2.80;99.90;;;;;;4913684;29;20384;-69
2023/01/16 04:40:08;;;;;;;0.75;0.28;;;2.70;99.90;;;;;;4930642;29;20048;-69
2023/01/16 04:42:35;;;;;;;0.22;0.22;;;2.70;99.90;;;;;;4913322;29;20047;-69
2023/01/16 04:45:03;;;;;;;0.30;0.30;;;2.70;99.90;;;;;;4913843;29;20050;-69
2023/01/16 04:47:29;;;;;;;0.40;0.30;;;2.70;99.90;;;;;;4928019;29;20094;-69
2023/01/16 04:49:56;;;;;;;0.40;0.30;;;2.70;99.90;;;;;;4930260;29;20051;-69
2023/01/16 04:52:23;;;;;;;0.47;0.47;;;2.60;99.90;;;;;;4930353;29;20048;-69
2023/01/16 04:54:49;;;;;;;1.60;0.88;;;2.70;99.90;;;;;;4930393;29;20075;-68
2023/01/16 04:57:16;;;;;;;0.45;0.30;;;2.60;99.90;;;;;;4930091;29;20051;-69
2023/01/16 04:59:43;;;;;;;0.73;0.40;;;2.60;99.90;;;;;;4914434;29;20059;-67
2023/01/16 05:02:10;;;;;;;0.98;0.50;;;2.60;99.90;;;;;;4922465;29;20087;-68
2023/01/16 05:04:39;;;;;;;0.43;0.40;;;2.60;99.90;;;;;;4930698;29;20499;-68
2023/01/16 05:07:06;;;;;;;0.40;0.40;;;2.60;99.90;;;;;;4930160;29;20496;-68
2023/01/16 05:09:33;;;;;;;0.85;0.40;;;2.60;99.90;;;;;;4930573;29;20127;-69
2023/01/16 05:11:59;;;;;;;0.52;0.43;;;2.70;99.90;;;;;;4930111;29;20130;-68
2023/01/16 05:14:26;;;;;;;0.80;0.50;;;2.60;99.90;;;;;;4930382;29;20055;-69
2023/01/16 05:16:53;;;;;;;1.10;0.60;;;2.50;99.90;;;;;;4929700;29;20054;-68
2023/01/16 05:19:19;;;;;;;0.40;0.30;;;2.50;99.90;;;;;;4913693;29;20102;-70
2023/01/16 05:21:46;;;;;;;0.30;0.30;;;2.50;99.90;;;;;;4913347;29;20158;-68
2023/01/16 05:24:13;;;;;;;0.90;0.32;;;2.40;99.90;;;;;;4930625;29;20056;-69
2023/01/16 05:26:40;;;;;;;0.40;0.30;;;2.40;99.90;;;;;;4930437;29;20405;-69
2023/01/16 05:29:06;;;;;;;0.30;0.30;;;2.30;99.90;;;;;;4930668;29;20047;-69
2023/01/16 05:31:33;;;;;;;0.40;0.40;;;2.20;99.90;;;;;;4934321;29;20047;-69
2023/01/16 05:34:00;;;;;;;0.82;0.35;;;2.20;99.90;;;;;;4916627;29;20134;-69
2023/01/16 05:36:27;;;;;;;0.75;0.22;;;2.10;99.90;;;;;;4934406;29;20046;-69
2023/01/16 05:38:54;;;;;;;0.57;0.45;;;2.10;99.90;;;;;;4933635;29;20066;-69
2023/01/16 05:41:21;;;;;;;0.93;0.47;;;2.20;99.90;;;;;;4934323;29;20059;-69
2023/01/16 05:43:47;;;;;;;0.60;0.57;;;2.20;99.90;;;;;;4908995;29;20054;-70
2023/01/16 05:46:14;;;;;;;0.52;0.50;;;2.20;99.90;;;;;;4931310;29;20087;-69
2023/01/16 05:48:41;;;;;;;0.50;0.30;;;2.20;99.90;;;;;;4933040;29;20075;-69
2023/01/16 05:51:07;;;;;;;0.60;0.30;;;2.20;99.90;;;;;;4933754;29;20176;-69
2023/01/16 05:53:34;;;;;;;1.40;0.75;;;2.20;99.90;;;;;;4933616;29;20047;-68
2023/01/16 05:56:09;;;;;;;0.40;0.40;;;2.30;99.90;;;;;;4933494;29;20051;-68
2023/01/16 05:58:36;;;;;;;0.50;0.50;;;2.40;99.90;;;;;;4933545;29;20052;-68
2023/01/16 06:01:03;;;;;;;0.30;0.30;;;2.40;99.90;;;;;;4931734;29;21037;-68
2023/01/16 06:03:30;;;;;;;0.75;0.30;;;2.40;99.90;;;;;;4933528;29;20052;-68
2023/01/16 06:05:58;;;;;;;1.30;0.40;;;2.50;99.90;;;;;;4933343;29;20047;-69
2023/01/16 06:08:25;;;;;;;1.08;0.45;;;2.60;99.90;;;;;;4933249;29;20054;-68
2023/01/16 06:10:52;;;;;;;0.30;0.30;;;2.70;99.90;;;;;;4933482;29;20054;-68
2023/01/16 06:13:19;;;;;;;1.80;0.40;;;2.70;99.90;;;;;;4933305;29;20568;-68
2023/01/16 06:15:46;;;;;;;0.30;0.30;;;2.80;99.90;;;;;;4933258;29;20122;-67
2023/01/16 06:18:14;;;;;;;0.25;0.25;;;2.80;99.90;;;;;;4933384;29;20055;-67
2023/01/16 06:20:42;;;;;;;2.45;0.22;;;2.80;99.90;;;;;;4942503;29;20040;-68
2023/01/16 06:23:08;;;;;;;0.43;0.35;;;2.90;99.90;;;;;;4933532;29;20492;-68
2023/01/16 06:25:35;;;;;;;0.25;0.25;;;3.00;99.90;;;;;;4933528;29;20048;-67
2023/01/16 06:28:02;;;;;;;0.20;0.20;;;3.00;99.90;;;;;;4936181;29;20071;-67
2023/01/16 06:30:29;;;;;;;0.20;0.20;;;3.00;99.90;;;;;;4920013;29;20139;-68
2023/01/16 06:32:55;;;;;;;1.08;0.50;;;3.10;99.90;;;;;;4934040;29;20060;-68
2023/01/16 06:35:22;;;;;;;0.30;0.30;;;3.00;99.90;;;;;;4933106;29;20111;-69
2023/01/16 06:37:49;;;;;;;2.45;0.28;;;3.00;99.90;;;;;;4933023;29;20113;-68
2023/01/16 06:40:18;;;;;;;0.40;0.30;;;3.20;99.90;;;;;;4932488;29;20529;-68
2023/01/16 06:42:45;;;;;;;0.20;0.20;;;3.00;99.90;;;;;;4932944;29;20048;-68
2023/01/16 06:45:12;;;;;;;0.20;0.20;;;3.10;99.90;;;;;;4932666;29;20426;-67
2023/01/16 06:47:39;;;;;;;1.17;0.60;;;3.10;99.90;;;;;;4932811;29;20054;-68
2023/01/16 06:50:06;;;;;;;0.45;0.45;;;3.10;99.90;;;;;;4932040;29;20130;-69
2023/01/16 06:52:34;;;;;;;2.10;0.60;;;3.10;99.90;;;;;;4933111;29;20066;-68
2023/01/16 06:55:01;;;;;;;0.70;0.50;;;3.10;99.90;;;;;;4933871;29;20081;-69
2023/01/16 06:57:28;;;;;;;0.70;0.50;;;3.20;99.90;;;;;;4931436;29;20138;-69
2023/01/16 06:59:55;;;;;;;1.38;0.60;;;3.20;99.90;;;;;;4915271;29;20127;-68
2023/01/16 07:02:21;;;;;;;3.63;0.50;;;3.40;99.90;;;;;;4932451;29;20139;-68
2023/01/16 07:04:48;;;;;;;2.22;0.80;;;3.30;99.90;;;;;;4932314;29;20496;-64
2023/01/16 07:07:15;;;;;;;8.82;1.30;;;3.30;99.90;;;;;;4932218;29;20051;-68
2023/01/16 07:09:42;;;;;;;1.30;0.68;;;3.30;99.90;;;;;;4932595;29;20466;-68
2023/01/16 07:12:09;;;;;;;7.57;1.20;;;3.40;99.90;;;;;;4931997;29;20103;-67
2023/01/16 07:22:55;;;;;;;3.45;0.50;;;3.50;99.90;;;;;;4931992;29;20039;-67
2023/01/16 07:25:32;;;;;;;5.80;1.10;;;3.60;99.90;;;;;;4899825;29;20062;-68
2023/01/16 07:27:58;;;;;;;3.88;0.75;;;3.60;99.90;;;;;;4915000;29;20043;-68
2023/01/16 07:30:25;;;;;;;2.55;0.80;;;3.60;99.90;;;;;;4932089;29;20529;-67
2023/01/16 07:32:52;;;;;;;3.35;0.50;;;3.60;99.90;;;;;;4914626;29;20138;-68
2023/01/16 07:35:19;;;;;;;2.55;0.80;;;3.60;99.90;;;;;;4899932;29;20432;-70
2023/01/16 07:37:46;;;;;;;1.27;0.65;;;3.70;99.90;;;;;;4931288;29;20324;-69
2023/01/16 07:40:13;;;;;;;2.33;0.50;;;3.70;99.90;;;;;;4932250;29;20138;-69
2023/01/16 07:42:40;;;;;;;3.95;0.95;;;3.70;99.90;;;;;;4931512;29;20051;-68
2023/01/16 07:45:07;;;;;;;2.85;1.15;;;3.70;99.90;;;;;;4931594;29;20122;-68
2023/01/16 07:47:34;;;;;;;3.03;1.17;;;3.70;99.90;;;;;;4929317;29;20055;-68
2023/01/16 07:50:01;;;;;;;3.03;1.35;;;3.70;99.90;;;;;;4931243;29;20048;-68
2023/01/16 07:52:28;;;;;;;11.10;2.97;;;3.70;99.90;;;;;;4920603;29;20059;-69
2023/01/16 07:54:54;;;;;;;7.07;2.33;;;3.80;99.90;;;;;;4912582;29;20054;-69
2023/01/16 07:57:21;;;;;;;10.80;3.28;;;3.80;99.90;;;;;;4928246;29;20083;-70
2023/01/16 07:59:51;;;;;;;8.25;3.17;;;3.80;99.90;;;;;;4928354;29;20101;-68
2023/01/16 08:02:18;;;;;;;7.88;2.85;;;3.80;99.90;;;;;;4928340;29;20055;-70
2023/01/16 08:04:45;;;;;;;13.43;3.13;;;3.80;99.90;;;;;;4928702;29;20075;-70
2023/01/16 08:07:12;;;;;;;19.02;3.78;;;3.80;99.90;;;;;;4913897;29;20052;-68
2023/01/16 08:09:38;;;;;;;17.27;4.70;;;3.80;99.90;;;;;;4928234;29;20055;-67
2023/01/16 08:12:05;;;;;;;11.80;2.78;;;3.80;99.90;;;;;;4926982;29;20048;-69
2023/01/16 08:14:32;;;;;;;15.10;4.10;;;3.80;99.90;;;;;;4927146;29;20126;-70
2023/01/16 08:16:59;;;;;;;23.35;4.68;;;3.80;99.90;;;;;;4922648;29;20052;-69
2023/01/16 08:19:26;;;;;;;13.38;3.35;;;3.90;99.90;;;;;;4926152;29;20044;-68
2023/01/16 08:21:52;;;;;;;28.08;3.45;;;3.90;99.90;;;;;;4927180;29;20139;-68
2023/01/16 08:24:19;;;;;;;16.15;2.88;;;3.90;99.90;;;;;;4927247;29;20083;-69
2023/01/16 08:26:46;;;;;;;14.50;2.65;;;3.90;99.90;;;;;;4926910;29;20047;-69
2023/01/16 08:29:16;;;;;;;13.43;2.85;;;3.90;99.90;;;;;;4927925;29;20057;-70
2023/01/16 08:31:58;;;;;;;24.87;3.00;;;4.00;99.90;;;;;;4910691;29;20237;-69
2023/01/16 08:34:25;;;;;;;18.73;2.55;;;4.00;99.90;;;;;;4929338;29;20048;-69
2023/01/16 08:36:51;;;;;;;10.73;2.42;;;4.00;99.90;;;;;;4928200;29;20404;-69
2023/01/16 08:39:18;;;;;;;12.65;3.58;;;4.00;99.90;;;;;;4927955;29;20082;-69
2023/01/16 08:53:00;;;;;;;15.25;3.15;;;4.00;99.90;;;;;;4913056;29;20079;-70
2023/01/16 08:55:27;;;;;;;15.13;3.38;;;4.00;99.90;;;;;;4924929;29;20043;-68
2023/01/16 08:57:56;;;;;;;15.77;3.78;;;4.00;99.90;;;;;;4586591;29;9999781;-70
2023/01/16 09:00:28;;;;;;;13.93;2.95;;;4.00;99.90;;;;;;4910744;29;20040;-69
2023/01/16 09:02:58;;;;;;;16.23;3.92;;;4.00;99.90;;;;;;4926970;29;20099;-71
2023/01/16 09:05:25;;;;;;;18.40;3.33;;;4.00;99.90;;;;;;4910503;29;20051;-67
2023/01/16 09:07:52;;;;;;;17.95;3.85;;;4.00;99.90;;;;;;4909581;29;20438;-67
2023/01/16 09:10:19;;;;;;;18.80;3.47;;;3.90;99.90;;;;;;4927226;29;20090;-69
2023/01/16 09:15:31;;;;;;;19.02;4.55;;;4.00;99.90;;;;;;4927251;29;20051;-67
2023/01/16 09:17:58;;;;;;;11.07;3.88;;;4.00;99.90;;;;;;4911351;29;20164;-70
2023/01/16 09:20:25;;;;;;;20.25;5.13;;;4.00;99.90;;;;;;4927548;29;20051;-68
2023/01/16 09:22:59;;;;;;;27.98;4.68;;;4.00;99.90;;;;;;4910403;29;20533;-69
2023/01/16 09:25:26;;;;;;;20.58;5.47;;;4.00;99.90;;;;;;4928703;29;20130;-68
2023/01/16 09:27:53;;;;;;;13.70;4.40;;;4.00;99.90;;;;;;4932243;29;20134;-67
2023/01/16 09:30:20;;;;;;;20.10;4.60;;;4.00;99.90;;;;;;4932097;29;20107;-69
2023/01/16 09:32:47;;;;;;;8.38;3.53;;;4.00;99.90;;;;;;4928575;29;20087;-66
2023/01/16 09:35:14;;;;;;;12.13;4.60;;;3.90;99.90;;;;;;4909829;29;20056;-66
2023/01/16 09:37:43;;;;;;;12.07;4.65;;;3.90;99.90;;;;;;4922038;29;20052;-68
2023/01/16 09:40:12;;;;;;;15.25;5.35;;;3.90;99.90;;;;;;4927548;29;20052;-68
2023/01/16 09:45:48;;;;;;;17.23;6.15;;;4.00;99.90;;;;;;4927338;29;20134;-67
2023/01/16 09:48:55;;;;;;;11.75;5.57;;;3.90;99.90;;;;;;4910109;29;20063;-68
2023/01/16 09:51:28;;;;;;;18.75;4.50;;;3.90;99.90;;;;;;4912526;29;20044;-69
2023/01/16 09:59:47;;;;;;;6.68;3.70;;;3.90;99.90;;;;;;4913200;29;20091;-68
2023/01/16 10:02:28;;;;;;;10.93;4.15;;;4.00;99.90;;;;;;4910224;29;20502;-68
2023/01/16 10:04:55;;;;;;;8.30;3.67;;;4.00;99.90;;;;;;4914393;29;20052;-69
2023/01/16 10:07:59;;;;;;;10.20;5.43;;;4.00;99.90;;;;;;4905753;29;20558;-69
2023/01/16 10:10:50;;;;;;;8.50;3.88;;;4.00;99.90;;;;;;4909712;29;20143;-67
2023/01/16 10:13:28;;;;;;;11.05;4.85;;;4.00;99.90;;;;;;4927199;29;20689;-69
2023/01/16 10:16:04;;;;;;;14.10;4.32;;;4.00;99.90;;;;;;4930603;29;20052;-69
2023/01/16 10:18:55;;;;;;;11.77;4.70;;;4.00;99.90;;;;;;4932022;29;20062;-69
2023/01/16 10:21:36;;;;;;;13.63;5.20;;;4.00;99.90;;;;;;4898913;29;20055;-68
2023/01/16 10:24:21;;;;;;;11.68;4.78;;;4.00;99.90;;;;;;4913861;29;20040;-68
2023/01/16 10:26:59;;;;;;;10.38;5.53;;;4.10;99.90;;;;;;4913554;29;20059;-68
2023/01/16 10:29:33;;;;;;;10.80;4.72;;;4.00;99.90;;;;;;4928575;29;20095;-69
2023/01/16 10:32:10;;;;;;;12.70;4.85;;;4.00;99.90;;;;;;4913241;29;20051;-67
2023/01/16 10:35:03;;;;;;;12.90;5.00;;;4.10;99.90;;;;;;4913261;29;20562;-68
2023/01/16 10:37:30;;;;;;;13.98;5.30;;;4.20;99.90;;;;;;4929896;29;20058;-68
2023/01/16 10:39:58;;;;;;;8.70;4.45;;;4.20;99.90;;;;;;4929929;29;20055;-64
2023/01/16 10:50:57;;;;;;;11.30;4.43;;;4.20;99.90;;;;;;4915866;29;20048;-69
2023/01/16 10:53:24;;;;;;;10.68;5.38;;;4.30;99.90;;;;;;4897395;29;20111;-67
2023/01/16 10:55:52;;;;;;;8.32;4.70;;;4.30;99.90;;;;;;4912734;29;20150;-66
2023/01/16 10:58:25;;;;;;;7.32;3.70;;;4.30;99.90;;;;;;4912638;29;20253;-68
2023/01/16 11:01:04;;;;;;;9.35;4.35;;;4.30;99.90;;;;;;4920558;29;20146;-67
2023/01/16 11:03:45;;;;;;;14.40;4.43;;;4.20;99.90;;;;;;4929385;29;20073;-68
2023/01/16 11:06:18;;;;;;;7.53;3.65;;;4.20;99.90;;;;;;4912454;29;20060;-67
2023/01/16 11:08:48;;;;;;;9.85;4.22;;;4.20;99.90;;;;;;4914380;29;20039;-67
2023/01/16 11:19:42;;;;;;;9.00;4.30;;;4.40;99.90;;;;;;4916937;29;20044;-67
2023/01/16 11:22:27;;;;;;;8.18;4.45;;;4.40;99.90;;;;;;4914174;29;20076;-68
2023/01/16 11:24:57;;;;;;;13.13;4.38;;;4.40;99.90;;;;;;4931460;29;20546;-67
2023/01/16 11:27:29;;;;;;;13.25;4.78;;;4.40;99.90;;;;;;4914029;29;20052;-72
2023/01/16 11:29:57;;;;;;;10.65;4.95;;;4.40;99.90;;;;;;4899140;29;20507;-67
2023/01/16 11:32:24;;;;;;;10.00;5.05;;;4.50;99.90;;;;;;4898413;29;20054;-68
2023/01/16 11:34:56;;;;;;;16.52;5.97;;;4.40;99.90;;;;;;4930283;29;20062;-68
2023/01/16 11:37:22;;;;;;;10.38;5.13;;;4.40;99.90;;;;;;4914667;29;20506;-68
2023/01/16 11:39:51;;;;;;;12.98;6.25;;;4.40;99.90;;;;;;4912441;29;20083;-67
2023/01/16 11:48:24;;;;;;;12.05;6.47;;;4.50;99.90;;;;;;4930069;29;20062;-68
2023/01/16 11:50:52;;;;;;;11.75;5.47;;;4.50;99.90;;;;;;4929564;29;20235;-67
2023/01/16 11:53:19;;;;;;;13.88;5.60;;;4.50;99.90;;;;;;4930484;29;20051;-67
2023/01/16 11:56:13;;;;;;;12.57;6.15;;;4.50;99.90;;;;;;4931318;29;20448;-68
2023/01/16 11:59:06;;;;;;;21.05;8.20;;;4.60;99.90;;;;;;4931094;29;20571;-68
2023/01/16 12:02:28;;;;;;;14.13;7.47;;;4.60;99.90;;;;;;4916488;29;20099;-67
2023/01/16 12:04:30;;;;;;;14.38;7.40;;;4.70;99.90;;;;;;4889185;29;20048;-69
2023/01/16 12:07:14;;;;;;;18.90;6.28;;;4.60;99.90;;;;;;4896772;29;20062;-68
2023/01/16 12:09:50;;;;;;;13.05;6.30;;;4.70;99.90;;;;;;4899616;29;20052;-68
2023/01/16 12:15:38;;;;;;;16.42;6.97;;;4.70;99.90;;;;;;4916874;29;20051;-68
2023/01/16 12:18:05;;;;;;;9.30;5.75;;;4.70;99.90;;;;;;4886270;29;20146;-67
2023/01/16 12:20:52;;;;;;;11.73;5.68;;;4.70;99.90;;;;;;4931337;29;20081;-68
2023/01/16 12:23:32;;;;;;;14.48;6.55;;;4.70;99.90;;;;;;4930461;29;20047;-68
2023/01/16 12:26:17;;;;;;;15.98;6.70;;;4.70;99.90;;;;;;4899647;29;20062;-68
2023/01/16 12:28:44;;;;;;;13.07;6.85;;;4.70;99.90;;;;;;4915702;29;20212;-68
2023/01/16 12:31:36;;;;;;;13.43;6.43;;;4.70;99.90;;;;;;4933438;29;20048;-68
2023/01/16 12:34:34;;;;;;;11.55;6.57;;;4.70;99.90;;;;;;4915337;29;20062;-68
2023/01/16 12:37:22;;;;;;;11.90;4.82;;;4.60;99.90;;;;;;4930522;29;20538;-67
2023/01/16 12:39:58;;;;;;;13.73;5.28;;;4.70;99.90;;;;;;4913355;29;20070;-67
2023/01/16 12:45:49;;;;;;;10.10;5.25;;;4.80;99.90;;;;;;4908056;29;20052;-69
2023/01/16 12:48:40;;;;;;;16.08;5.68;;;4.80;99.90;;;;;;4913351;29;20073;-69
2023/01/16 12:51:13;;;;;;;16.15;7.43;;;4.80;99.90;;;;;;4911093;29;20146;-69
2023/01/16 12:54:01;;;;;;;13.97;6.03;;;4.80;99.90;;;;;;4912389;29;20383;-68
2023/01/16 12:56:39;;;;;;;15.88;6.75;;;4.80;99.90;;;;;;4928001;29;20218;-67
2023/01/16 12:59:16;;;;;;;20.15;6.05;;;4.90;99.90;;;;;;4929816;29;20059;-69
2023/01/16 13:01:45;;;;;;;14.80;5.95;;;4.90;99.90;;;;;;4913855;29;20043;-68
2023/01/16 13:04:16;;;;;;;11.40;5.15;;;5.00;99.90;;;;;;4913339;29;20350;-69
2023/01/16 13:06:47;;;;;;;10.15;4.05;;;5.00;99.90;;;;;;4661574;29;10000781;-68
2023/01/16 13:09:36;;;;;;;10.90;4.43;;;5.00;99.90;;;;;;4928440;29;20686;-69
2023/01/16 13:15:26;;;;;;;9.13;3.63;;;5.20;99.90;;;;;;4915345;29;20051;-69
2023/01/16 13:18:19;;;;;;;12.43;3.42;;;5.20;99.90;;;;;;4897217;29;20051;-68
2023/01/16 13:20:53;;;;;;;11.80;3.67;;;5.20;99.90;;;;;;4893346;29;20055;-68
2023/01/16 13:23:32;;;;;;;9.95;2.88;;;5.10;99.90;;;;;;4915498;29;20047;-68
2023/01/16 13:26:02;;;;;;;13.05;3.00;;;5.10;99.90;;;;;;4931652;29;20131;-68
2023/01/16 13:28:42;;;;;;;8.70;3.55;;;5.10;99.90;;;;;;4931911;29;20048;-67
2023/01/16 13:31:33;;;;;;;9.73;3.15;;;5.10;99.90;;;;;;4893704;29;20150;-67
2023/01/16 13:34:09;;;;;;;11.90;3.13;;;5.10;99.90;;;;;;4900439;29;20075;-68
2023/01/16 13:37:03;;;;;;;5.40;3.05;;;5.10;99.90;;;;;;4913366;29;20130;-67
2023/01/16 13:39:47;;;;;;;10.63;4.07;;;5.20;99.90;;;;;;4915383;29;20563;-68
2023/01/16 13:42:14;;;;;;;6.85;3.13;;;5.30;99.90;;;;;;4929631;29;20048;-68
2023/01/16 13:47:35;;;;;;;6.90;3.80;;;5.20;99.90;;;;;;4915839;29;20570;-67
2023/01/16 13:50:22;;;;;;;9.40;4.63;;;5.20;99.90;;;;;;4912523;29;20051;-67
2023/01/16 13:52:48;;;;;;;8.95;2.85;;;5.20;99.90;;;;;;4923808;29;20226;-68
2023/01/16 13:55:34;;;;;;;15.90;3.75;;;5.10;99.90;;;;;;4916381;29;20101;-68
2023/01/16 13:58:07;;;;;;;9.65;3.30;;;5.10;99.90;;;;;;4918883;29;20082;-68
2023/01/16 14:00:34;;;;;;;5.82;3.40;;;5.10;99.90;;;;;;4933214;29;20298;-68
2023/01/16 14:03:17;;;;;;;7.95;3.00;;;5.10;99.90;;;;;;4900526;29;20135;-67
2023/01/16 14:05:46;;;;;;;10.57;3.63;;;5.00;99.90;;;;;;4933071;29;20478;-68
2023/01/16 14:11:04;;;;;;;10.48;3.33;;;5.10;99.90;;;;;;4929783;29;20062;-68
2023/01/16 14:13:38;;;;;;;7.75;3.22;;;5.00;99.90;;;;;;4933214;29;20055;-67
2023/01/16 14:16:31;;;;;;;6.97;3.05;;;5.10;99.90;;;;;;4907937;29;20080;-67
2023/01/16 14:19:00;;;;;;;9.52;4.72;;;5.10;99.90;;;;;;4914305;29;20063;-68
2023/01/16 14:21:36;;;;;;;10.43;4.50;;;5.20;99.90;;;;;;4917468;29;20081;-68
2023/01/16 14:24:05;;;;;;;7.93;4.47;;;5.20;99.90;;;;;;4933103;29;20154;-68
2023/01/16 14:26:32;;;;;;;9.13;4.45;;;5.20;99.90;;;;;;4932958;29;20086;-67
2023/01/16 14:29:01;;;;;;;8.77;5.00;;;5.30;99.90;;;;;;4913947;29;20143;-67